createdAt,value
2019-05-07T00:02:27.659Z,5.72
2019-05-07T00:04:56.361Z,5.75
2019-05-07T00:07:25.026Z,5.76
2019-05-07T00:09:53.689Z,5.78
2019-05-07T00:12:23.022Z,5.76
2019-05-07T00:15:01.295Z,5.81
2019-05-07T00:17:22.960Z,5.80
2019-05-07T00:19:52.575Z,5.80
2019-05-07T00:22:22.720Z,5.81
2019-05-07T00:24:52.255Z,5.78
2019-05-07T00:27:22.634Z,5.79
2019-05-07T00:29:52.152Z,5.84
2019-05-07T00:32:22.131Z,5.79
2019-05-07T00:34:55.369Z,5.77
2019-05-07T00:37:33.846Z,5.79
2019-05-07T00:40:13.841Z,5.79
2019-05-07T00:43:02.597Z,5.79
2019-05-07T00:45:38.791Z,5.79
2019-05-07T00:48:07.462Z,5.71
2019-05-07T00:50:37.825Z,5.71
2019-05-07T00:53:06.480Z,5.67
2019-05-07T00:55:35.321Z,5.75
2019-05-07T00:58:04.032Z,5.73
2019-05-07T01:00:33.356Z,5.71
2019-05-07T01:03:03.040Z,5.74
2019-05-07T01:05:32.625Z,5.75
2019-05-07T01:08:02.544Z,5.74
2019-05-07T01:10:32.973Z,5.73
2019-05-07T01:13:02.780Z,5.74
2019-05-07T01:15:34.521Z,5.67
2019-05-07T01:18:02.844Z,5.65
2019-05-07T01:20:32.983Z,5.60
2019-05-07T01:23:02.628Z,5.46
2019-05-07T01:25:32.907Z,5.24
2019-05-07T01:28:02.656Z,4.94
2019-05-07T01:30:32.488Z,4.98
2019-05-07T01:33:07.258Z,4.94
2019-05-07T01:35:54.015Z,5.08
2019-05-07T01:38:23.011Z,4.98
2019-05-07T01:40:52.104Z,4.84
2019-05-07T01:43:22.770Z,4.79
2019-05-07T01:45:52.991Z,4.81
2019-05-07T01:48:23.008Z,4.72
2019-05-07T01:50:52.589Z,4.66
2019-05-07T01:53:22.735Z,4.56
2019-05-07T01:55:52.367Z,4.55
2019-05-07T01:58:22.130Z,4.65
2019-05-07T02:00:53.034Z,4.63
2019-05-07T02:03:43.008Z,4.52
2019-05-07T02:06:22.055Z,4.43
2019-05-07T02:09:10.890Z,4.42
2019-05-07T02:11:43.135Z,4.41
2019-05-07T02:14:13.636Z,4.21
2019-05-07T02:16:42.206Z,4.03
2019-05-07T02:19:12.672Z,3.91
2019-05-07T02:21:42.362Z,3.91
2019-05-07T02:24:12.666Z,3.88
2019-05-07T02:26:42.738Z,3.91
2019-05-07T02:29:12.202Z,3.94
2019-05-07T02:31:44.264Z,3.84
2019-05-07T02:34:14.141Z,3.88
2019-05-07T02:36:43.257Z,3.88
2019-05-07T02:39:27.530Z,3.80
2019-05-07T02:41:56.268Z,3.74
2019-05-07T02:44:24.963Z,3.86
2019-05-07T02:47:05.552Z,3.78
2019-05-07T02:49:44.061Z,3.64
2019-05-07T02:52:22.967Z,3.59
2019-05-07T02:54:58.743Z,3.77
2019-05-07T02:57:28.388Z,3.64
2019-05-07T02:59:57.076Z,3.46
2019-05-07T03:02:25.777Z,3.42
2019-05-07T03:04:54.450Z,3.05
2019-05-07T03:07:24.115Z,2.80
2019-05-07T03:09:53.990Z,2.73
2019-05-07T03:12:23.719Z,2.33
2019-05-07T03:14:53.653Z,2.51
2019-05-07T03:17:24.623Z,2.55
2019-05-07T03:19:54.877Z,2.26
2019-05-07T03:22:23.606Z,2.19
2019-05-07T03:24:57.266Z,2.30
2019-05-07T03:27:25.935Z,2.38
2019-05-07T03:30:09.458Z,2.31
2019-05-07T03:32:46.899Z,2.16
2019-05-07T03:35:30.000Z,2.26
2019-05-07T03:37:58.772Z,2.29
2019-05-07T03:40:28.315Z,2.22
2019-05-07T03:42:57.092Z,2.07
2019-05-07T03:45:36.046Z,2.10
2019-05-07T03:48:16.242Z,2.05
2019-05-07T03:50:44.888Z,2.20
2019-05-07T03:53:14.492Z,2.19
2019-05-07T03:55:44.721Z,2.21
2019-05-07T03:58:14.794Z,2.15
2019-05-07T04:00:44.627Z,2.09
2019-05-07T04:03:18.780Z,2.10
2019-05-07T04:05:43.873Z,2.17
2019-05-07T04:08:13.288Z,2.20
2019-05-07T04:10:44.368Z,2.38
2019-05-07T04:13:13.573Z,2.34
2019-05-07T04:15:43.801Z,2.38
2019-05-07T04:18:13.577Z,2.60
2019-05-07T04:20:43.538Z,2.73
2019-05-07T04:23:13.850Z,2.84
2019-05-07T04:26:04.405Z,2.89
2019-05-07T04:28:57.252Z,2.84
2019-05-07T04:31:28.002Z,2.87
2019-05-07T04:33:59.366Z,2.91
2019-05-07T04:36:30.397Z,2.98
2019-05-07T04:39:03.092Z,3.08
2019-05-07T04:41:33.019Z,3.12
2019-05-07T04:44:03.671Z,3.24
2019-05-07T04:46:33.395Z,3.29
2019-05-07T04:49:03.601Z,3.34
2019-05-07T04:51:57.235Z,3.25
2019-05-07T04:54:25.900Z,3.31
2019-05-07T04:56:54.609Z,3.40
2019-05-07T04:59:23.872Z,3.30
2019-05-07T05:01:59.157Z,3.31
2019-05-07T05:04:34.045Z,3.38
2019-05-07T05:06:58.245Z,3.34
2019-05-07T05:09:26.987Z,3.37
2019-05-07T05:11:55.645Z,3.68
2019-05-07T05:14:24.315Z,3.91
2019-05-07T05:16:53.007Z,4.29
2019-05-07T05:19:23.021Z,4.65
2019-05-07T05:21:59.191Z,4.91
2019-05-07T05:24:34.603Z,4.94
2019-05-07T05:27:03.276Z,5.09
2019-05-07T05:29:33.876Z,5.19
2019-05-07T05:32:02.549Z,5.25
2019-05-07T05:34:32.914Z,5.33
2019-05-07T05:37:02.432Z,5.37
2019-05-07T05:39:32.060Z,5.55
2019-05-07T05:42:20.082Z,5.99
2019-05-07T05:44:48.754Z,6.64
2019-05-07T05:47:17.421Z,7.31
2019-05-07T05:49:46.108Z,7.66
2019-05-07T05:52:25.010Z,7.79
2019-05-07T05:54:57.825Z,7.89
2019-05-07T05:57:44.198Z,7.20
2019-05-07T06:00:32.858Z,7.10
2019-05-07T06:03:22.687Z,6.70
2019-05-07T06:06:01.862Z,6.57
2019-05-07T06:08:38.974Z,6.46
2019-05-07T06:11:21.856Z,6.44
2019-05-07T06:14:09.804Z,6.34
2019-05-07T06:16:42.646Z,6.12
2019-05-07T06:19:42.534Z,6.18
2019-05-07T06:22:33.292Z,6.36
2019-05-07T06:25:17.423Z,6.65
2019-05-07T06:27:46.092Z,7.00
2019-05-07T06:30:15.448Z,7.43
2019-05-07T06:32:44.106Z,7.81
2019-05-07T06:35:13.020Z,7.87
2019-05-07T06:37:42.878Z,8.49
2019-05-07T06:40:24.061Z,8.94
2019-05-07T06:43:04.315Z,9.21
2019-05-07T06:45:42.213Z,9.23
2019-05-07T06:48:12.625Z,9.62
2019-05-07T06:50:56.645Z,10.07
2019-05-07T06:53:33.340Z,10.89
2019-05-07T06:56:04.078Z,11.30
2019-05-07T06:58:49.964Z,11.57
2019-05-07T07:01:32.244Z,11.25
2019-05-07T07:04:09.380Z,10.09
2019-05-07T07:06:56.152Z,9.64
2019-05-07T07:09:39.748Z,9.96
2019-05-07T07:12:12.775Z,10.43
2019-05-07T07:14:42.394Z,10.58
2019-05-07T07:17:12.958Z,10.37
2019-05-07T07:19:42.788Z,9.99
2019-05-07T07:22:12.956Z,9.81
2019-05-07T07:24:42.523Z,9.68
2019-05-07T07:27:13.198Z,10.49
2019-05-07T07:29:46.690Z,11.19
2019-05-07T07:32:17.268Z,11.76
2019-05-07T07:34:49.153Z,12.03
2019-05-07T07:37:34.597Z,12.23
2019-05-07T07:40:36.216Z,12.26
2019-05-07T07:43:07.163Z,12.16
2019-05-07T07:45:35.477Z,11.66
2019-05-07T07:48:04.152Z,10.72
2019-05-07T07:50:33.188Z,9.99
2019-05-07T07:53:02.612Z,10.36
2019-05-07T07:55:37.042Z,11.23
2019-05-07T07:58:23.066Z,12.54
2019-05-07T08:01:12.318Z,12.60
2019-05-07T08:03:41.800Z,10.90
2019-05-07T08:06:11.940Z,9.32
2019-05-07T08:08:42.475Z,9.34
2019-05-07T08:11:12.660Z,9.43
2019-05-07T08:13:42.489Z,9.92
2019-05-07T08:16:12.969Z,10.51
2019-05-07T08:18:43.523Z,11.24
2019-05-07T08:21:12.162Z,11.93
2019-05-07T08:23:42.401Z,12.07
2019-05-07T08:26:12.682Z,10.99
2019-05-07T08:28:41.990Z,10.92
2019-05-07T08:31:37.950Z,10.75
2019-05-07T08:34:15.381Z,11.03
2019-05-07T08:36:44.150Z,11.93
2019-05-07T08:39:13.067Z,12.65
2019-05-07T08:41:42.342Z,14.16
2019-05-07T08:44:15.793Z,13.72
2019-05-07T08:46:57.714Z,13.01
2019-05-07T08:49:36.783Z,13.05
2019-05-07T08:52:03.537Z,12.74
2019-05-07T08:54:33.354Z,12.08
2019-05-07T08:57:02.604Z,12.53
2019-05-07T08:59:32.587Z,12.65
2019-05-07T09:02:02.917Z,13.53
2019-05-07T09:04:32.638Z,13.92
2019-05-07T09:07:02.688Z,13.26
2019-05-07T09:09:32.372Z,12.19
2019-05-07T09:12:02.940Z,11.86
2019-05-07T09:14:32.225Z,11.92
2019-05-07T09:17:02.468Z,12.05
2019-05-07T09:19:32.446Z,13.22
2019-05-07T09:22:02.132Z,13.87
2019-05-07T09:24:33.279Z,13.78
2019-05-07T09:27:26.609Z,13.25
2019-05-07T09:30:12.884Z,12.41
2019-05-07T09:33:04.946Z,10.94
2019-05-07T09:35:39.798Z,10.53
2019-05-07T09:38:08.363Z,10.17
2019-05-07T09:40:37.022Z,10.15
2019-05-07T09:43:05.723Z,10.53
2019-05-07T09:45:34.403Z,11.34
2019-05-07T09:48:04.782Z,12.07
2019-05-07T09:50:33.441Z,12.46
2019-05-07T09:53:02.483Z,13.34
2019-05-07T09:55:32.554Z,14.36
2019-05-07T09:58:02.058Z,14.79
2019-05-07T10:00:32.014Z,16.74
2019-05-07T10:03:01.157Z,17.74
2019-05-07T10:05:31.939Z,16.97
2019-05-07T10:08:01.873Z,17.82
2019-05-07T10:10:32.749Z,16.11
2019-05-07T10:13:07.303Z,14.47
2019-05-07T10:15:36.120Z,15.20
2019-05-07T10:18:12.392Z,15.15
2019-05-07T10:20:42.110Z,14.03
2019-05-07T10:23:19.721Z,13.79
2019-05-07T10:25:51.536Z,14.62
2019-05-07T10:28:22.577Z,16.25
2019-05-07T10:30:52.180Z,18.85
2019-05-07T10:33:22.849Z,19.26
2019-05-07T10:35:52.962Z,20.06
2019-05-07T10:38:21.975Z,17.05
2019-05-07T10:40:50.718Z,15.51
2019-05-07T10:43:19.411Z,14.67
2019-05-07T10:46:06.108Z,13.35
2019-05-07T10:48:42.664Z,12.15
2019-05-07T10:51:11.410Z,11.98
2019-05-07T10:53:42.322Z,12.06
2019-05-07T10:56:11.818Z,12.09
2019-05-07T10:58:41.763Z,12.33
2019-05-07T11:01:12.027Z,12.56
2019-05-07T11:03:40.818Z,12.34
2019-05-07T11:06:11.840Z,13.06
2019-05-07T11:08:40.117Z,13.16
2019-05-07T11:11:08.881Z,13.93
2019-05-07T11:13:37.563Z,13.80
2019-05-07T11:16:11.753Z,13.48
2019-05-07T11:18:44.119Z,13.71
2019-05-07T11:21:12.900Z,13.37
2019-05-07T11:23:41.957Z,13.39
2019-05-07T11:26:11.811Z,13.26
2019-05-07T11:28:40.717Z,14.12
2019-05-07T11:31:09.384Z,13.86
2019-05-07T11:33:38.081Z,13.56
2019-05-07T11:36:06.743Z,13.39
2019-05-07T11:38:35.522Z,13.44
2019-05-07T11:41:04.349Z,14.80
2019-05-07T11:43:58.170Z,15.60
2019-05-07T11:46:34.104Z,17.46
2019-05-07T11:49:09.289Z,18.18
2019-05-07T11:51:42.726Z,18.42
2019-05-07T11:54:12.871Z,20.53
2019-05-07T11:56:42.354Z,23.07
2019-05-07T11:59:13.380Z,23.09
2019-05-07T12:01:47.716Z,20.78
2019-05-07T12:04:15.569Z,16.86
2019-05-07T12:06:44.329Z,15.23
2019-05-07T12:09:13.076Z,14.96
2019-05-07T12:11:42.548Z,15.29
2019-05-07T12:14:12.396Z,16.66
2019-05-07T12:16:42.549Z,18.74
2019-05-07T12:19:13.042Z,16.70
2019-05-07T12:21:42.284Z,17.83
2019-05-07T12:24:12.922Z,15.75
2019-05-07T12:26:42.508Z,15.47
2019-05-07T12:29:11.849Z,16.72
2019-05-07T12:31:49.637Z,19.13
2019-05-07T12:34:23.074Z,20.81
2019-05-07T12:36:52.441Z,20.53
2019-05-07T12:39:21.908Z,20.20
2019-05-07T12:41:52.441Z,21.27
2019-05-07T12:44:22.178Z,20.55
2019-05-07T12:46:52.492Z,18.48
2019-05-07T12:49:22.169Z,16.66
2019-05-07T12:51:56.329Z,16.00
2019-05-07T12:54:34.708Z,16.99
2019-05-07T12:57:02.542Z,20.11
2019-05-07T12:59:32.239Z,21.78
2019-05-07T13:02:21.563Z,18.99
2019-05-07T13:04:38.078Z,18.48
2019-05-07T13:07:34.976Z,18.69
2019-05-07T13:10:04.001Z,19.75
2019-05-07T13:12:32.683Z,18.19
2019-05-07T13:15:03.012Z,19.45
2019-05-07T13:17:33.681Z,19.60
2019-05-07T13:20:02.278Z,21.71
2019-05-07T13:22:32.563Z,19.47
2019-05-07T13:25:02.138Z,18.56
2019-05-07T13:27:32.014Z,17.96
2019-05-07T13:30:02.600Z,17.93
2019-05-07T13:32:33.445Z,17.08
2019-05-07T13:35:03.074Z,18.88
2019-05-07T13:37:33.649Z,20.28
2019-05-07T13:40:11.677Z,20.19
2019-05-07T13:42:59.879Z,20.15
2019-05-07T13:45:39.257Z,20.24
2019-05-07T13:48:22.535Z,22.42
2019-05-07T13:50:51.911Z,24.69
2019-05-07T13:53:22.680Z,22.65
2019-05-07T13:55:51.221Z,19.64
2019-05-07T13:58:19.902Z,17.90
2019-05-07T14:01:07.656Z,17.09
2019-05-07T14:03:36.480Z,15.33
2019-05-07T14:06:05.301Z,16.85
2019-05-07T14:08:36.313Z,18.37
2019-05-07T14:11:05.154Z,18.41
2019-05-07T14:13:34.496Z,18.71
2019-05-07T14:16:08.274Z,19.67
2019-05-07T14:18:38.316Z,20.08
2019-05-07T14:21:07.335Z,20.41
2019-05-07T14:23:36.176Z,19.28
2019-05-07T14:26:05.961Z,18.24
2019-05-07T14:28:34.701Z,17.89
2019-05-07T14:31:03.608Z,19.79
2019-05-07T14:34:02.367Z,19.92
2019-05-07T14:36:36.855Z,18.93
2019-05-07T14:39:07.659Z,19.01
2019-05-07T14:41:36.659Z,18.81
2019-05-07T14:44:16.312Z,17.47
2019-05-07T14:46:50.919Z,17.51
2019-05-07T14:49:15.624Z,19.49
2019-05-07T14:51:44.364Z,23.60
2019-05-07T14:54:13.203Z,23.60
2019-05-07T14:56:42.856Z,24.81
2019-05-07T14:59:12.817Z,23.81
2019-05-07T15:01:42.940Z,20.78
2019-05-07T15:04:12.922Z,19.38
2019-05-07T15:06:41.680Z,18.57
2019-05-07T15:09:12.160Z,18.48
2019-05-07T15:11:42.475Z,17.11
2019-05-07T15:14:12.090Z,16.31
2019-05-07T15:16:42.705Z,15.89
2019-05-07T15:19:12.424Z,14.82
2019-05-07T15:21:42.583Z,14.66
2019-05-07T15:24:14.141Z,14.03
2019-05-07T15:26:42.901Z,13.71
2019-05-07T15:29:13.589Z,13.38
2019-05-07T15:31:57.757Z,13.03
2019-05-07T15:34:26.446Z,12.54
2019-05-07T15:36:55.406Z,12.43
2019-05-07T15:39:24.245Z,12.18
2019-05-07T15:41:53.056Z,12.26
2019-05-07T15:44:21.832Z,12.41
2019-05-07T15:46:51.998Z,12.17
2019-05-07T15:49:21.644Z,12.03
2019-05-07T15:51:53.150Z,12.04
2019-05-07T15:54:22.080Z,12.03
2019-05-07T15:56:52.309Z,12.07
2019-05-07T15:59:24.430Z,12.18
2019-05-07T16:01:56.772Z,12.18
2019-05-07T16:04:26.053Z,12.08
2019-05-07T16:06:56.448Z,12.19
2019-05-07T16:09:26.782Z,12.29
2019-05-07T16:11:55.451Z,12.19
2019-05-07T16:14:26.780Z,12.30
2019-05-07T16:17:03.102Z,12.65
2019-05-07T16:19:32.222Z,13.92
2019-05-07T16:22:05.710Z,13.92
2019-05-07T16:24:34.725Z,13.81
2019-05-07T16:27:05.198Z,13.48
2019-05-07T16:29:35.894Z,13.49
2019-05-07T16:32:04.282Z,13.63
2019-05-07T16:34:32.938Z,14.08
2019-05-07T16:37:05.537Z,14.55
2019-05-07T16:39:32.649Z,14.59
2019-05-07T16:42:01.895Z,14.52
2019-05-07T16:44:30.612Z,14.17
2019-05-07T16:46:59.282Z,14.12
2019-05-07T16:49:27.968Z,14.29
2019-05-07T16:51:56.648Z,14.37
2019-05-07T16:54:25.318Z,14.64
2019-05-07T16:57:28.484Z,14.47
2019-05-07T16:59:57.163Z,14.50
2019-05-07T17:02:28.987Z,14.88
2019-05-07T17:05:09.288Z,14.75
2019-05-07T17:07:42.801Z,14.99
2019-05-07T17:10:12.440Z,14.98
2019-05-07T17:12:42.846Z,15.15
2019-05-07T17:15:13.129Z,15.00
2019-05-07T17:17:42.781Z,14.43
2019-05-07T17:20:12.703Z,13.48
2019-05-07T17:22:42.731Z,13.71
2019-05-07T17:25:29.676Z,13.63
2019-05-07T17:27:58.400Z,13.24
2019-05-07T17:30:27.090Z,12.90
2019-05-07T17:32:55.754Z,12.71
2019-05-07T17:35:24.458Z,12.58
2019-05-07T17:38:05.921Z,12.60
2019-05-07T17:40:23.607Z,12.46
2019-05-07T17:42:52.557Z,12.30
2019-05-07T17:45:22.761Z,12.35
2019-05-07T17:47:52.358Z,12.25
2019-05-07T17:50:24.939Z,12.08
2019-05-07T17:52:53.613Z,12.12
2019-05-07T17:55:22.428Z,12.23
2019-05-07T17:57:52.384Z,12.51
2019-05-07T18:00:22.145Z,12.36
2019-05-07T18:03:13.185Z,12.23
2019-05-07T18:05:42.439Z,11.99
2019-05-07T18:08:12.619Z,11.92
2019-05-07T18:10:42.380Z,11.79
2019-05-07T18:13:11.853Z,11.43
2019-05-07T18:15:42.636Z,11.15
2019-05-07T18:18:12.818Z,11.04
2019-05-07T18:20:42.179Z,10.83
2019-05-07T18:23:16.659Z,10.61
2019-05-07T18:25:42.896Z,10.48
2019-05-07T18:28:12.754Z,10.28
2019-05-07T18:30:41.430Z,10.12
2019-05-07T18:33:24.741Z,10.00
2019-05-07T18:35:53.485Z,9.86
2019-05-07T18:38:22.470Z,9.54
2019-05-07T18:40:52.841Z,9.40
2019-05-07T18:43:22.663Z,9.13
2019-05-07T18:45:51.821Z,8.93
2019-05-07T18:48:22.392Z,8.71
2019-05-07T18:50:52.215Z,8.50
2019-05-07T18:53:22.678Z,8.32
2019-05-07T18:55:51.753Z,8.00
2019-05-07T18:58:22.425Z,7.71
2019-05-07T19:00:54.810Z,7.32
2019-05-07T19:03:25.382Z,7.00
2019-05-07T19:05:54.143Z,6.80
2019-05-07T19:08:23.057Z,6.67
2019-05-07T19:10:52.275Z,6.49
2019-05-07T19:13:22.146Z,6.44
2019-05-07T19:15:53.037Z,6.47
2019-05-07T19:18:22.803Z,6.36
2019-05-07T19:20:52.902Z,6.32
2019-05-07T19:23:22.514Z,6.17
2019-05-07T19:25:52.330Z,5.98
2019-05-07T19:28:22.447Z,5.96
2019-05-07T19:30:52.746Z,5.88
2019-05-07T19:33:26.541Z,5.75
2019-05-07T19:35:52.889Z,5.58
2019-05-07T19:38:21.706Z,5.44
2019-05-07T19:40:52.665Z,5.31
2019-05-07T19:43:21.122Z,5.11
2019-05-07T19:45:49.791Z,5.00
2019-05-07T19:48:18.487Z,4.95
2019-05-07T19:50:47.153Z,4.86
2019-05-07T19:53:15.822Z,4.58
2019-05-07T19:56:22.079Z,4.55
2019-05-07T19:58:52.642Z,4.55
2019-05-07T20:01:26.484Z,4.52
2019-05-07T20:03:55.169Z,4.60
2019-05-07T20:06:23.832Z,4.64
2019-05-07T20:08:52.920Z,4.68
2019-05-07T20:11:32.003Z,4.78
2019-05-07T20:14:02.033Z,4.81
2019-05-07T20:16:32.975Z,4.83
2019-05-07T20:19:01.217Z,4.77
2019-05-07T20:21:32.623Z,4.66
2019-05-07T20:24:01.899Z,4.52
2019-05-07T20:26:32.626Z,4.13
2019-05-07T20:29:03.074Z,3.94
2019-05-07T20:31:33.477Z,3.88
2019-05-07T20:34:02.414Z,3.68
2019-05-07T20:36:32.776Z,3.62
2019-05-07T20:39:02.333Z,3.50
2019-05-07T20:41:32.894Z,3.44
2019-05-07T20:44:02.843Z,3.52
2019-05-07T20:46:32.048Z,3.72
2019-05-07T20:49:02.696Z,3.76
2019-05-07T20:51:32.529Z,3.76
2019-05-07T20:54:12.862Z,3.83
2019-05-07T20:56:46.751Z,3.82
2019-05-07T20:59:15.626Z,3.79
2019-05-07T21:01:44.308Z,3.67
2019-05-07T21:04:13.137Z,3.47
2019-05-07T21:06:43.149Z,3.39
2019-05-07T21:09:12.779Z,3.49
2019-05-07T21:11:43.025Z,3.44
2019-05-07T21:14:12.245Z,3.24
2019-05-07T21:16:42.464Z,3.08
2019-05-07T21:19:12.827Z,3.09
2019-05-07T21:21:42.313Z,3.19
2019-05-07T21:24:13.030Z,3.33
2019-05-07T21:26:42.399Z,3.36
2019-05-07T21:29:13.486Z,3.35
2019-05-07T21:31:43.135Z,3.23
2019-05-07T21:34:12.586Z,3.13
2019-05-07T21:36:43.294Z,3.21
2019-05-07T21:39:13.055Z,3.28
2019-05-07T21:41:42.763Z,3.26
2019-05-07T21:44:11.574Z,3.26
2019-05-07T21:46:42.288Z,3.31
2019-05-07T21:49:12.157Z,3.47
2019-05-07T21:51:41.105Z,3.52
2019-05-07T21:54:27.925Z,3.47
2019-05-07T21:57:13.786Z,3.50
2019-05-07T21:59:43.251Z,3.43
2019-05-07T22:02:17.241Z,3.36
2019-05-07T22:04:46.011Z,3.25
2019-05-07T22:07:14.857Z,3.18
2019-05-07T22:09:43.521Z,3.24
2019-05-07T22:12:12.252Z,3.26
2019-05-07T22:14:40.901Z,3.09
2019-05-07T22:17:09.569Z,2.97
2019-05-07T22:19:38.267Z,2.81
2019-05-07T22:22:06.933Z,2.74
2019-05-07T22:24:35.599Z,2.63
2019-05-07T22:27:04.394Z,2.38
2019-05-07T22:29:33.056Z,2.20
2019-05-07T22:32:39.186Z,2.20
2019-05-07T22:35:15.682Z,2.05
2019-05-07T22:37:44.362Z,2.00
2019-05-07T22:40:13.197Z,1.83
2019-05-07T22:42:41.959Z,1.63
2019-05-07T22:45:12.139Z,1.83
2019-05-07T22:47:41.987Z,2.02
2019-05-07T22:50:12.101Z,2.23
2019-05-07T22:52:40.828Z,2.23
2019-05-07T22:55:09.670Z,2.14
2019-05-07T22:57:54.185Z,2.15
2019-05-07T23:00:28.941Z,2.18
2019-05-07T23:02:57.600Z,2.23
2019-05-07T23:05:26.285Z,2.30
2019-05-07T23:07:54.986Z,2.47
2019-05-07T23:10:23.645Z,2.73
2019-05-07T23:12:52.318Z,2.61
2019-05-07T23:15:22.605Z,2.39
2019-05-07T23:17:51.360Z,2.25
2019-05-07T23:20:24.194Z,2.09
2019-05-07T23:22:52.021Z,2.03
2019-05-07T23:25:24.228Z,2.00
2019-05-07T23:27:52.466Z,1.65
2019-05-07T23:30:22.375Z,1.51
2019-05-07T23:32:52.808Z,1.48
2019-05-07T23:35:22.270Z,1.37
2019-05-07T23:37:53.016Z,1.38
2019-05-07T23:40:38.322Z,1.54
2019-05-07T23:43:08.150Z,1.33
2019-05-07T23:45:36.857Z,1.35
2019-05-07T23:48:05.546Z,1.54
2019-05-07T23:50:34.203Z,1.42
2019-05-07T23:53:02.877Z,1.82
2019-05-07T23:55:31.902Z,2.04
2019-05-07T23:58:02.947Z,1.95
